createdAt,value
2022-11-21T00:00:00.089Z,0.00
2022-11-21T00:01:00.009Z,0.00
2022-11-21T00:02:00.064Z,0.00
2022-11-21T00:02:59.861Z,0.00
2022-11-21T00:03:59.882Z,0.00
2022-11-21T00:04:59.929Z,0.00
2022-11-21T00:05:59.820Z,0.00
2022-11-21T00:07:00.028Z,0.00
2022-11-21T00:08:00.058Z,0.00
2022-11-21T00:08:59.839Z,0.00
2022-11-21T00:09:59.799Z,0.00
2022-11-21T00:11:00.197Z,0.00
2022-11-21T00:11:59.846Z,0.00
2022-11-21T00:12:59.787Z,0.00
2022-11-21T00:13:59.766Z,0.00
2022-11-21T00:14:59.779Z,0.00
2022-11-21T00:15:59.866Z,0.00
2022-11-21T00:16:59.876Z,0.00
2022-11-21T00:17:59.756Z,0.00
2022-11-21T00:19:00.094Z,0.00
2022-11-21T00:20:00.543Z,0.00
2022-11-21T00:20:59.832Z,0.00
2022-11-21T00:21:59.894Z,0.00
2022-11-21T00:22:59.824Z,0.00
2022-11-21T00:23:59.817Z,0.00
2022-11-21T00:24:59.732Z,0.00
2022-11-21T00:25:59.824Z,0.00
2022-11-21T00:27:01.356Z,0.00
2022-11-21T00:27:59.752Z,0.00
2022-11-21T00:28:59.692Z,0.00
2022-11-21T00:29:59.751Z,0.00
2022-11-21T00:30:59.758Z,0.00
2022-11-21T00:31:59.821Z,0.00
2022-11-21T00:32:59.866Z,0.00
2022-11-21T00:33:59.904Z,0.00
2022-11-21T00:34:59.947Z,0.00
2022-11-21T00:35:59.951Z,0.00
2022-11-21T00:36:59.959Z,0.00
2022-11-21T00:37:59.649Z,0.00
2022-11-21T00:38:59.669Z,0.00
2022-11-21T00:39:59.603Z,0.00
2022-11-21T00:40:59.646Z,0.00
2022-11-21T00:41:59.688Z,0.00
2022-11-21T00:42:59.742Z,0.00
2022-11-21T00:43:59.787Z,0.00
2022-11-21T00:44:59.588Z,0.00
2022-11-21T00:45:59.795Z,0.00
2022-11-21T00:46:59.591Z,0.00
2022-11-21T00:47:59.593Z,0.00
2022-11-21T00:48:59.896Z,0.00
2022-11-21T00:49:59.677Z,0.00
2022-11-21T00:50:59.846Z,0.00
2022-11-21T00:51:59.734Z,0.00
2022-11-21T00:53:00.165Z,0.00
2022-11-21T00:53:59.515Z,0.00
2022-11-21T00:54:59.523Z,0.00
2022-11-21T00:55:59.634Z,0.00
2022-11-21T00:56:59.741Z,0.00
2022-11-21T00:57:59.637Z,0.00
2022-11-21T00:58:59.933Z,0.00
2022-11-21T00:59:59.662Z,0.00
2022-11-21T01:01:00.291Z,0.00
2022-11-21T01:01:59.471Z,0.00
2022-11-21T01:02:59.581Z,0.00
2022-11-21T01:03:59.601Z,0.00
2022-11-21T01:05:00.292Z,0.00
2022-11-21T01:05:59.559Z,0.00
2022-11-21T01:06:59.533Z,0.00
2022-11-21T01:07:59.491Z,0.00
2022-11-21T01:09:00.370Z,0.00
2022-11-21T01:10:00.316Z,0.00
2022-11-21T01:10:59.514Z,0.00
2022-11-21T01:11:59.418Z,0.00
2022-11-21T01:12:59.734Z,0.00
2022-11-21T01:13:59.428Z,0.00
2022-11-21T01:14:59.608Z,0.00
2022-11-21T01:16:00.127Z,0.00
2022-11-21T01:17:00.408Z,0.00
2022-11-21T01:17:59.447Z,0.00
2022-11-21T01:18:59.382Z,0.00
2022-11-21T01:19:59.427Z,0.00
2022-11-21T01:20:59.478Z,0.00
2022-11-21T01:21:59.523Z,0.00
2022-11-21T01:22:59.577Z,0.00
2022-11-21T01:23:59.384Z,0.00
2022-11-21T01:24:59.331Z,0.00
2022-11-21T01:25:59.324Z,0.00
2022-11-21T01:26:59.325Z,0.00
2022-11-21T01:27:59.342Z,0.00
2022-11-21T01:28:59.311Z,0.00
2022-11-21T01:29:59.338Z,0.00
2022-11-21T01:30:59.363Z,0.00
2022-11-21T01:31:59.272Z,0.00
2022-11-21T01:32:59.343Z,0.00
2022-11-21T01:33:59.305Z,0.00
2022-11-21T01:34:59.296Z,0.00
2022-11-21T01:35:59.301Z,0.00
2022-11-21T01:36:59.311Z,0.00
2022-11-21T01:37:59.269Z,0.00
2022-11-21T01:38:59.368Z,0.00
2022-11-21T01:40:00.699Z,0.00
2022-11-21T01:40:59.229Z,0.00
2022-11-21T01:41:59.209Z,0.00
2022-11-21T01:42:59.308Z,0.00
2022-11-21T01:43:59.420Z,0.00
2022-11-21T01:44:59.421Z,0.00
2022-11-21T01:45:59.278Z,0.00
2022-11-21T01:46:59.447Z,0.00
2022-11-21T01:47:59.227Z,0.00
2022-11-21T01:48:59.346Z,0.00
2022-11-21T01:49:59.216Z,0.00
2022-11-21T01:50:59.413Z,0.00
2022-11-21T01:51:59.528Z,0.00
2022-11-21T01:52:59.158Z,0.00
2022-11-21T01:53:59.195Z,0.00
2022-11-21T01:54:59.226Z,0.00
2022-11-21T01:55:59.124Z,0.00
2022-11-21T01:56:59.134Z,0.00
2022-11-21T01:57:59.163Z,0.00
2022-11-21T01:58:59.199Z,0.00
2022-11-21T01:59:59.117Z,0.00
2022-11-21T02:00:59.156Z,0.00
2022-11-21T02:01:59.122Z,0.00
2022-11-21T02:02:59.156Z,0.00
2022-11-21T02:03:59.443Z,0.00
2022-11-21T02:04:59.492Z,0.00
2022-11-21T02:05:59.142Z,0.00
2022-11-21T02:06:59.637Z,0.00
2022-11-21T02:07:59.112Z,0.00
2022-11-21T02:08:59.060Z,0.00
2022-11-21T02:09:59.049Z,0.00
2022-11-21T02:12:25.117Z,0.00
2022-11-21T02:13:25.316Z,0.00
2022-11-21T02:14:25.421Z,0.00
2022-11-21T02:15:25.057Z,0.00
2022-11-21T02:16:25.166Z,0.00
2022-11-21T02:17:25.453Z,0.00
2022-11-21T02:18:24.994Z,0.00
2022-11-21T02:19:24.970Z,0.00
2022-11-21T02:20:25.024Z,0.00
2022-11-21T02:21:24.953Z,0.00
2022-11-21T02:22:24.951Z,0.00
2022-11-21T02:23:24.946Z,0.00
2022-11-21T02:24:25.157Z,0.00
2022-11-21T02:25:24.976Z,0.00
2022-11-21T02:26:24.980Z,0.00
2022-11-21T02:27:24.991Z,0.00
2022-11-21T02:28:25.005Z,0.00
2022-11-21T02:29:25.021Z,0.00
2022-11-21T02:30:25.041Z,0.00
2022-11-21T02:31:24.910Z,0.00
2022-11-21T02:32:24.859Z,0.00
2022-11-21T02:33:24.926Z,0.00
2022-11-21T02:34:25.087Z,0.00
2022-11-21T02:35:24.930Z,0.00
2022-11-21T02:36:24.937Z,0.00
2022-11-21T02:37:25.046Z,0.00
2022-11-21T02:38:25.063Z,0.00
2022-11-21T02:39:24.817Z,0.00
2022-11-21T02:40:24.797Z,0.00
2022-11-21T02:41:24.796Z,0.00
2022-11-21T02:42:24.787Z,0.00
2022-11-21T02:43:25.044Z,0.00
2022-11-21T02:44:25.016Z,0.00
2022-11-21T02:45:24.823Z,0.00
2022-11-21T02:46:24.764Z,0.00
2022-11-21T02:47:24.754Z,0.00
2022-11-21T02:48:24.764Z,0.00
2022-11-21T02:49:24.822Z,0.00
2022-11-21T02:50:24.753Z,0.00
2022-11-21T02:51:24.746Z,0.00
2022-11-21T02:52:24.842Z,0.00
2022-11-21T02:53:24.779Z,0.00
2022-11-21T02:54:24.988Z,0.00
2022-11-21T02:55:24.732Z,0.00
2022-11-21T02:56:26.163Z,0.00
2022-11-21T02:57:24.701Z,0.00
2022-11-21T02:58:24.780Z,0.00
2022-11-21T02:59:24.691Z,0.00
2022-11-21T03:00:24.820Z,0.00
2022-11-21T03:01:24.825Z,0.00
2022-11-21T03:02:24.729Z,0.00
2022-11-21T03:03:24.696Z,0.00
2022-11-21T03:04:24.759Z,0.00
2022-11-21T03:05:24.649Z,0.00
2022-11-21T03:06:24.651Z,0.00
2022-11-21T03:07:24.718Z,0.00
2022-11-21T03:08:24.746Z,0.00
2022-11-21T03:09:24.779Z,0.00
2022-11-21T03:10:24.637Z,0.00
2022-11-21T03:11:24.656Z,0.00
2022-11-21T03:12:24.663Z,0.00
2022-11-21T03:13:24.596Z,0.00
2022-11-21T03:14:24.736Z,0.00
2022-11-21T03:15:24.586Z,0.00
2022-11-21T03:16:24.576Z,0.00
2022-11-21T03:17:24.766Z,0.00
2022-11-21T03:18:24.615Z,0.00
2022-11-21T03:19:26.032Z,0.00
2022-11-21T03:20:24.564Z,0.00
2022-11-21T03:21:24.936Z,0.00
2022-11-21T03:22:24.983Z,0.00
2022-11-21T03:23:24.545Z,0.00
2022-11-21T03:24:24.657Z,0.00
2022-11-21T03:25:24.853Z,0.00
2022-11-21T03:26:24.635Z,0.00
2022-11-21T03:27:24.780Z,0.00
2022-11-21T03:28:25.062Z,0.00
2022-11-21T03:29:25.083Z,0.00
2022-11-21T03:30:24.522Z,0.00
2022-11-21T03:31:24.511Z,0.00
2022-11-21T03:32:25.112Z,0.00
2022-11-21T03:33:25.130Z,0.00
2022-11-21T03:34:24.685Z,0.00
2022-11-21T03:35:24.739Z,0.00
2022-11-21T03:36:25.168Z,0.00
2022-11-21T03:37:24.456Z,0.00
2022-11-21T03:38:24.559Z,0.00
2022-11-21T03:39:24.459Z,0.00
2022-11-21T03:40:25.217Z,0.00
2022-11-21T03:41:25.142Z,0.00
2022-11-21T03:42:24.447Z,0.00
2022-11-21T03:43:24.796Z,0.00
2022-11-21T03:44:24.554Z,0.00
2022-11-21T03:45:25.296Z,0.00
2022-11-21T03:46:24.789Z,0.00
2022-11-21T03:47:25.156Z,0.00
2022-11-21T03:48:25.004Z,0.00
2022-11-21T03:49:24.414Z,0.00
2022-11-21T03:50:24.415Z,0.00
2022-11-21T03:51:24.503Z,0.00
2022-11-21T03:52:24.373Z,0.00
2022-11-21T03:53:24.413Z,0.00
2022-11-21T03:54:24.366Z,0.00
2022-11-21T03:55:24.534Z,0.00
2022-11-21T03:56:24.459Z,0.00
2022-11-21T03:57:24.344Z,0.00
2022-11-21T03:58:24.662Z,0.00
2022-11-21T03:59:24.363Z,0.00
2022-11-21T04:00:24.663Z,0.00
2022-11-21T04:01:24.375Z,0.00
2022-11-21T04:02:24.550Z,0.00
2022-11-21T04:03:24.373Z,0.00
2022-11-21T04:04:24.400Z,0.00
2022-11-21T04:05:24.294Z,0.00
2022-11-21T04:06:24.330Z,0.00
2022-11-21T04:07:24.439Z,0.00
2022-11-21T04:08:24.277Z,0.00
2022-11-21T04:09:24.419Z,0.00
2022-11-21T04:10:24.268Z,0.00
2022-11-21T04:11:24.307Z,0.00
2022-11-21T04:12:24.357Z,0.00
2022-11-21T04:13:24.661Z,0.00
2022-11-21T04:14:24.267Z,0.00
2022-11-21T04:15:24.237Z,0.00
2022-11-21T04:16:24.788Z,0.00
2022-11-21T04:17:24.325Z,0.00
2022-11-21T04:18:24.646Z,0.00
2022-11-21T04:19:24.347Z,0.00
2022-11-21T04:20:24.964Z,0.00
2022-11-21T04:21:24.820Z,0.00
2022-11-21T04:22:24.323Z,0.00
2022-11-21T04:23:24.473Z,0.00
2022-11-21T04:24:24.605Z,0.00
2022-11-21T04:25:24.163Z,0.00
2022-11-21T04:26:24.175Z,0.00
2022-11-21T04:27:24.182Z,0.00
2022-11-21T04:28:24.194Z,0.00
2022-11-21T04:29:24.303Z,0.00
2022-11-21T04:30:24.241Z,0.00
2022-11-21T04:31:24.223Z,0.00
2022-11-21T04:32:24.320Z,0.00
2022-11-21T04:33:24.128Z,0.00
2022-11-21T04:34:24.439Z,0.00
2022-11-21T04:35:24.439Z,0.00
2022-11-21T04:36:24.617Z,0.00
2022-11-21T04:37:24.576Z,0.00
2022-11-21T04:38:24.578Z,0.00
2022-11-21T04:39:24.311Z,0.00
2022-11-21T04:40:24.178Z,0.00
2022-11-21T04:41:24.178Z,0.00
2022-11-21T04:42:24.804Z,0.00
2022-11-21T04:43:24.103Z,0.00
2022-11-21T04:44:24.115Z,0.00
2022-11-21T04:45:24.066Z,0.00
2022-11-21T04:46:24.046Z,0.00
2022-11-21T04:47:24.020Z,0.00
2022-11-21T04:48:24.644Z,0.00
2022-11-21T04:49:24.034Z,0.00
2022-11-21T04:50:24.015Z,0.00
2022-11-21T04:51:24.008Z,0.00
2022-11-21T04:52:24.024Z,0.00
2022-11-21T04:53:24.037Z,0.00
2022-11-21T04:54:24.043Z,0.00
2022-11-21T04:55:24.054Z,0.00
2022-11-21T04:56:24.076Z,0.00
2022-11-21T04:57:24.083Z,0.00
2022-11-21T04:58:23.941Z,0.00
2022-11-21T04:59:23.936Z,0.00
2022-11-21T05:00:24.671Z,0.00
2022-11-21T05:01:23.955Z,0.00
2022-11-21T05:02:23.962Z,0.00
2022-11-21T05:03:23.992Z,0.00
2022-11-21T05:04:23.954Z,0.00
2022-11-21T05:05:23.967Z,0.00
2022-11-21T05:06:23.898Z,0.00
2022-11-21T05:07:23.940Z,0.00
2022-11-21T05:08:23.979Z,0.00
2022-11-21T05:09:24.020Z,0.00
2022-11-21T05:10:24.066Z,0.00
2022-11-21T05:11:24.028Z,0.00
2022-11-21T05:12:24.148Z,0.00
2022-11-21T05:13:24.211Z,0.00
2022-11-21T05:14:23.834Z,0.00
2022-11-21T05:15:25.016Z,0.00
2022-11-21T05:16:23.845Z,0.00
2022-11-21T05:17:23.855Z,0.00
2022-11-21T05:18:23.838Z,0.00
2022-11-21T05:19:23.906Z,0.00
2022-11-21T05:20:23.856Z,0.00
2022-11-21T05:21:23.935Z,0.00
2022-11-21T05:22:23.830Z,0.00
2022-11-21T05:23:23.785Z,0.00
2022-11-21T05:24:23.885Z,0.00
2022-11-21T05:25:23.892Z,0.00
2022-11-21T05:26:23.892Z,0.00
2022-11-21T05:27:23.744Z,0.00
2022-11-21T05:28:23.752Z,0.00
2022-11-21T05:29:27.920Z,0.00
2022-11-21T05:30:23.786Z,0.00
2022-11-21T05:31:23.793Z,0.00
2022-11-21T05:32:23.722Z,0.00
2022-11-21T05:33:23.818Z,0.00
2022-11-21T05:34:23.842Z,0.00
2022-11-21T05:35:23.850Z,0.00
2022-11-21T05:36:23.751Z,0.00
2022-11-21T05:37:23.869Z,0.00
2022-11-21T05:38:23.694Z,0.00
2022-11-21T05:39:23.898Z,0.00
2022-11-21T05:40:23.909Z,0.00
2022-11-21T05:41:23.828Z,0.00
2022-11-21T05:42:23.844Z,0.00
2022-11-21T05:43:23.949Z,0.00
2022-11-21T05:44:23.807Z,0.00
2022-11-21T05:45:23.655Z,0.00
2022-11-21T05:46:23.699Z,0.00
2022-11-21T05:47:23.760Z,0.00
2022-11-21T05:48:23.807Z,0.00
2022-11-21T05:49:23.778Z,0.00
2022-11-21T05:50:23.876Z,0.00
2022-11-21T05:51:23.926Z,0.00
2022-11-21T05:52:23.975Z,0.00
2022-11-21T05:53:24.027Z,0.00
2022-11-21T05:54:24.095Z,0.00
2022-11-21T05:55:24.108Z,0.00
2022-11-21T05:56:24.126Z,0.00
2022-11-21T05:57:23.692Z,0.00
2022-11-21T05:58:23.564Z,0.00
2022-11-21T05:59:23.590Z,0.00
2022-11-21T06:00:23.643Z,0.00
2022-11-21T06:01:23.642Z,0.00
2022-11-21T06:02:23.532Z,0.00
2022-11-21T06:03:23.559Z,0.00
2022-11-21T06:04:23.855Z,0.00
2022-11-21T06:05:23.852Z,0.00
2022-11-21T06:06:25.091Z,0.00
2022-11-21T06:07:24.023Z,0.00
2022-11-21T06:08:23.551Z,0.00
2022-11-21T06:09:23.542Z,0.00
2022-11-21T06:10:23.940Z,0.00
2022-11-21T06:11:24.141Z,0.00
2022-11-21T06:12:25.658Z,0.00
2022-11-21T06:13:24.229Z,0.00
2022-11-21T06:14:24.279Z,0.00
2022-11-21T06:15:23.669Z,0.00
2022-11-21T06:16:23.595Z,0.00
2022-11-21T06:17:23.750Z,0.00
2022-11-21T06:18:24.409Z,0.00
2022-11-21T06:19:24.407Z,0.00
2022-11-21T06:20:23.429Z,0.00
2022-11-21T06:21:23.437Z,0.00
2022-11-21T06:22:23.486Z,0.00
2022-11-21T06:23:23.437Z,0.00
2022-11-21T06:24:24.426Z,0.00
2022-11-21T06:25:23.576Z,0.00
2022-11-21T06:26:23.671Z,0.00
2022-11-21T06:27:23.695Z,0.00
2022-11-21T06:28:23.534Z,0.00
2022-11-21T06:29:23.696Z,0.00
2022-11-21T06:30:23.744Z,0.00
2022-11-21T06:31:23.784Z,0.00
2022-11-21T06:32:23.436Z,0.00
2022-11-21T06:33:23.333Z,0.00
2022-11-21T06:34:23.342Z,0.00
2022-11-21T06:35:23.364Z,0.00
2022-11-21T06:36:23.332Z,0.00
2022-11-21T06:37:23.302Z,0.00
2022-11-21T06:38:23.312Z,0.00
2022-11-21T06:39:23.311Z,0.00
2022-11-21T06:40:23.341Z,0.00
2022-11-21T06:41:23.291Z,0.00
2022-11-21T06:42:23.281Z,0.00
2022-11-21T06:43:23.352Z,0.00
2022-11-21T06:44:23.380Z,0.00
2022-11-21T06:45:23.329Z,0.00
2022-11-21T06:46:23.282Z,0.00
2022-11-21T06:47:23.418Z,0.00
2022-11-21T06:48:23.428Z,0.00
2022-11-21T06:49:23.240Z,0.00
2022-11-21T06:50:23.234Z,0.00
2022-11-21T06:51:23.467Z,0.00
2022-11-21T06:52:23.476Z,0.00
2022-11-21T06:53:23.488Z,5.62
2022-11-21T06:54:23.238Z,5.62
2022-11-21T06:55:23.250Z,5.62
2022-11-21T06:56:23.187Z,5.62
2022-11-21T06:57:23.206Z,5.62
2022-11-21T06:58:23.287Z,5.62
2022-11-21T06:59:23.295Z,5.62
2022-11-21T07:00:23.166Z,5.62
2022-11-21T07:01:23.235Z,11.25
2022-11-21T07:02:23.246Z,11.25
2022-11-21T07:03:23.165Z,11.25
2022-11-21T07:04:23.182Z,11.25
2022-11-21T07:05:23.387Z,11.25
2022-11-21T07:06:23.423Z,11.25
2022-11-21T07:07:23.392Z,16.88
2022-11-21T07:08:23.123Z,16.88
2022-11-21T07:09:33.204Z,16.88
2022-11-21T07:10:23.102Z,16.88
2022-11-21T07:11:25.020Z,16.88
2022-11-21T07:12:23.551Z,16.88
2022-11-21T07:13:23.782Z,22.50
2022-11-21T07:14:23.160Z,22.50
2022-11-21T07:15:23.781Z,22.50
2022-11-21T07:16:23.069Z,22.50
2022-11-21T07:17:23.078Z,22.50
2022-11-21T07:18:23.088Z,22.50
2022-11-21T07:19:23.060Z,22.50
2022-11-21T07:20:23.039Z,22.50
2022-11-21T07:21:23.020Z,28.12
2022-11-21T07:22:23.209Z,28.12
2022-11-21T07:23:23.068Z,28.12
2022-11-21T07:24:23.079Z,28.12
2022-11-21T07:25:23.049Z,33.75
2022-11-21T07:26:23.332Z,33.75
2022-11-21T07:27:23.517Z,39.38
2022-11-21T07:28:23.128Z,39.38
2022-11-21T07:29:23.055Z,39.38
2022-11-21T07:30:23.058Z,45.00
2022-11-21T07:31:23.165Z,45.00
2022-11-21T07:32:23.278Z,45.00
2022-11-21T07:33:23.205Z,45.00
2022-11-21T07:34:23.242Z,45.00
2022-11-21T07:35:23.225Z,45.00
2022-11-21T07:36:23.068Z,50.62
2022-11-21T07:37:22.934Z,50.62
2022-11-21T07:38:22.985Z,50.62
2022-11-21T07:39:22.955Z,56.25
2022-11-21T07:40:23.094Z,56.25
2022-11-21T07:41:24.394Z,56.25
2022-11-21T07:42:23.192Z,56.25
2022-11-21T07:43:22.918Z,56.25
2022-11-21T07:44:23.262Z,56.25
2022-11-21T07:45:22.984Z,56.25
2022-11-21T07:46:23.191Z,56.25
2022-11-21T07:47:23.161Z,61.88
2022-11-21T07:48:22.902Z,61.88
2022-11-21T07:49:22.869Z,67.50
2022-11-21T07:50:22.930Z,73.12
2022-11-21T07:51:22.877Z,73.12
2022-11-21T07:52:23.159Z,73.12
2022-11-21T07:53:22.961Z,78.75
2022-11-21T07:54:23.122Z,78.75
2022-11-21T07:55:22.819Z,84.38
2022-11-21T07:56:22.849Z,90.00
2022-11-21T07:57:22.860Z,90.00
2022-11-21T07:58:22.898Z,90.00
2022-11-21T07:59:22.946Z,90.00
2022-11-21T08:00:22.997Z,84.38
2022-11-21T08:01:23.122Z,73.12
2022-11-21T08:02:23.066Z,73.12
2022-11-21T08:03:23.118Z,73.12
2022-11-21T08:04:22.926Z,73.12
2022-11-21T08:05:22.997Z,95.62
2022-11-21T08:06:22.745Z,101.25
2022-11-21T08:07:23.116Z,101.25
2022-11-21T08:08:23.135Z,90.00
2022-11-21T08:09:22.726Z,78.75
2022-11-21T08:10:22.742Z,73.12
2022-11-21T08:12:48.688Z,61.88
2022-11-21T08:13:48.729Z,61.88
2022-11-21T08:14:48.748Z,56.25
2022-11-21T08:15:48.764Z,50.62
2022-11-21T08:16:48.757Z,45.00
2022-11-21T08:17:48.798Z,45.00
2022-11-21T08:18:48.798Z,50.62
2022-11-21T08:19:48.691Z,50.62
2022-11-21T08:20:48.708Z,50.62
2022-11-21T08:21:48.846Z,50.62
2022-11-21T08:22:48.858Z,56.25
2022-11-21T08:23:48.876Z,61.88
2022-11-21T08:24:48.598Z,67.50
2022-11-21T08:25:48.898Z,61.88
2022-11-21T08:26:48.795Z,61.88
2022-11-21T08:27:48.887Z,67.50
2022-11-21T08:28:48.865Z,78.75
2022-11-21T08:29:48.947Z,84.38
2022-11-21T08:30:48.558Z,84.38
2022-11-21T08:31:48.566Z,78.75
2022-11-21T08:32:48.566Z,73.12
2022-11-21T08:33:48.565Z,67.50
2022-11-21T08:34:48.565Z,73.12
2022-11-21T08:35:48.523Z,95.62
2022-11-21T08:36:48.677Z,118.12
2022-11-21T08:37:48.576Z,123.75
2022-11-21T08:38:48.787Z,123.75
2022-11-21T08:39:48.501Z,140.62
2022-11-21T08:40:48.492Z,151.88
2022-11-21T08:41:48.916Z,140.62
2022-11-21T08:42:48.473Z,129.38
2022-11-21T08:43:48.495Z,140.62
2022-11-21T08:44:48.953Z,146.25
2022-11-21T08:45:48.460Z,123.75
2022-11-21T08:46:48.449Z,112.50
2022-11-21T08:47:48.457Z,123.75
2022-11-21T08:48:52.349Z,135.00
2022-11-21T08:49:48.436Z,157.50
2022-11-21T08:50:48.416Z,180.00
2022-11-21T08:51:48.419Z,174.38
2022-11-21T08:52:48.408Z,174.38
2022-11-21T08:53:48.418Z,168.75
2022-11-21T08:54:48.398Z,151.88
2022-11-21T08:55:48.389Z,151.88
2022-11-21T08:56:48.412Z,146.25
2022-11-21T08:57:48.394Z,146.25
2022-11-21T08:58:48.448Z,140.62
2022-11-21T08:59:48.667Z,135.00
2022-11-21T09:00:48.986Z,129.38
2022-11-21T09:01:49.199Z,135.00
2022-11-21T09:02:49.046Z,129.38
2022-11-21T09:03:48.544Z,140.62
2022-11-21T09:04:49.189Z,151.88
2022-11-21T09:05:48.979Z,140.62
2022-11-21T09:06:48.797Z,123.75
2022-11-21T09:07:49.196Z,106.88
2022-11-21T09:08:49.145Z,106.88
2022-11-21T09:09:49.303Z,101.25
2022-11-21T09:10:48.304Z,101.25
2022-11-21T09:11:48.462Z,123.75
2022-11-21T09:12:49.283Z,157.50
2022-11-21T09:13:49.175Z,151.88
2022-11-21T09:14:49.509Z,135.00
2022-11-21T09:15:49.021Z,135.00
2022-11-21T09:16:49.140Z,135.00
2022-11-21T09:17:48.270Z,135.00
2022-11-21T09:18:48.433Z,123.75
2022-11-21T09:19:48.581Z,112.50
2022-11-21T09:20:48.293Z,106.88
2022-11-21T09:21:49.171Z,101.25
2022-11-21T09:22:48.789Z,95.62
2022-11-21T09:23:48.353Z,95.62
2022-11-21T09:24:49.029Z,101.25
2022-11-21T09:25:48.268Z,106.88
2022-11-21T09:26:48.246Z,106.88
2022-11-21T09:27:48.295Z,112.50
2022-11-21T09:28:48.335Z,123.75
2022-11-21T09:29:53.857Z,112.50
2022-11-21T09:30:48.189Z,106.88
2022-11-21T09:31:48.228Z,112.50
2022-11-21T09:32:48.278Z,118.12
2022-11-21T09:33:53.555Z,123.75
2022-11-21T09:34:48.363Z,129.38
2022-11-21T09:35:48.408Z,146.25
2022-11-21T09:36:48.263Z,168.75
2022-11-21T09:37:48.493Z,163.12
2022-11-21T09:38:48.154Z,185.62
2022-11-21T09:39:48.987Z,208.12
2022-11-21T09:40:48.167Z,241.88
2022-11-21T09:41:48.213Z,264.38
2022-11-21T09:42:48.104Z,275.62
2022-11-21T09:43:53.052Z,286.88
2022-11-21T09:44:48.800Z,298.12
2022-11-21T09:45:48.252Z,320.62
2022-11-21T09:46:48.352Z,343.12
2022-11-21T09:47:48.926Z,326.25
2022-11-21T09:48:48.891Z,298.12
2022-11-21T09:49:48.461Z,309.38
2022-11-21T09:50:53.643Z,281.25
2022-11-21T09:51:49.011Z,247.50
2022-11-21T09:52:49.021Z,225.00
2022-11-21T09:53:49.649Z,213.75
2022-11-21T09:54:48.220Z,236.25
2022-11-21T09:55:48.320Z,264.38
2022-11-21T09:56:49.159Z,275.62
2022-11-21T09:57:49.043Z,270.00
2022-11-21T09:58:48.663Z,236.25
2022-11-21T09:59:48.311Z,219.38
2022-11-21T10:00:48.038Z,213.75
2022-11-21T10:01:47.989Z,208.12
2022-11-21T10:02:48.008Z,208.12
2022-11-21T10:03:48.027Z,213.75
2022-11-21T10:04:48.039Z,213.75
2022-11-21T10:05:48.129Z,219.38
2022-11-21T10:06:47.946Z,219.38
2022-11-21T10:07:48.080Z,230.62
2022-11-21T10:08:48.153Z,236.25
2022-11-21T10:09:48.334Z,241.88
2022-11-21T10:10:48.093Z,247.50
2022-11-21T10:11:48.148Z,241.88
2022-11-21T10:12:48.115Z,225.00
2022-11-21T10:13:47.975Z,213.75
2022-11-21T10:14:48.091Z,196.88
2022-11-21T10:15:47.916Z,163.12
2022-11-21T10:16:48.064Z,135.00
2022-11-21T10:17:48.290Z,118.12
2022-11-21T10:18:49.533Z,112.50
2022-11-21T10:19:48.205Z,101.25
2022-11-21T10:20:48.124Z,90.00
2022-11-21T10:21:48.287Z,90.00
2022-11-21T10:22:47.840Z,95.62
2022-11-21T10:23:48.253Z,95.62
2022-11-21T10:24:48.231Z,95.62
2022-11-21T10:25:47.881Z,101.25
2022-11-21T10:26:47.892Z,101.25
2022-11-21T10:27:47.872Z,106.88
2022-11-21T10:28:47.803Z,118.12
2022-11-21T10:29:47.915Z,112.50
2022-11-21T10:30:47.882Z,118.12
2022-11-21T10:31:47.887Z,123.75
2022-11-21T10:32:47.761Z,129.38
2022-11-21T10:33:47.759Z,129.38
2022-11-21T10:34:47.740Z,123.75
2022-11-21T10:35:47.758Z,123.75
2022-11-21T10:36:47.731Z,123.75
2022-11-21T10:37:47.727Z,118.12
2022-11-21T10:38:47.778Z,112.50
2022-11-21T10:39:47.738Z,112.50
2022-11-21T10:40:47.741Z,106.88
2022-11-21T10:41:47.700Z,95.62
2022-11-21T10:42:48.623Z,95.62
2022-11-21T10:43:47.865Z,112.50
2022-11-21T10:44:47.884Z,112.50
2022-11-21T10:45:47.886Z,112.50
2022-11-21T10:46:47.897Z,118.12
2022-11-21T10:47:47.921Z,129.38
2022-11-21T10:48:47.927Z,140.62
2022-11-21T10:49:47.936Z,146.25
2022-11-21T10:50:47.955Z,168.75
2022-11-21T10:51:47.965Z,196.88
2022-11-21T10:52:48.138Z,196.88
2022-11-21T10:53:47.995Z,185.62
2022-11-21T10:54:48.014Z,168.75
2022-11-21T10:55:48.016Z,168.75
2022-11-21T10:56:48.060Z,168.75
2022-11-21T10:57:47.675Z,163.12
2022-11-21T10:58:48.623Z,157.50
2022-11-21T10:59:47.673Z,157.50
2022-11-21T11:00:47.731Z,146.25
2022-11-21T11:01:48.063Z,146.25
2022-11-21T11:02:47.741Z,146.25
2022-11-21T11:04:07.053Z,146.25
2022-11-21T11:04:52.317Z,151.88
2022-11-21T11:05:47.993Z,163.12
2022-11-21T11:06:48.152Z,174.38
2022-11-21T11:07:48.225Z,174.38
2022-11-21T11:08:47.520Z,157.50
2022-11-21T11:09:47.528Z,151.88
2022-11-21T11:10:47.520Z,146.25
2022-11-21T11:11:48.270Z,140.62
2022-11-21T11:12:47.998Z,140.62
2022-11-21T11:13:49.466Z,129.38
2022-11-21T11:14:47.547Z,123.75
2022-11-21T11:15:47.558Z,123.75
2022-11-21T11:16:47.567Z,123.75
2022-11-21T11:17:48.094Z,140.62
2022-11-21T11:18:47.538Z,163.12
2022-11-21T11:19:47.913Z,174.38
2022-11-21T11:20:47.637Z,180.00
2022-11-21T11:21:47.692Z,196.88
2022-11-21T11:22:48.121Z,208.12
2022-11-21T11:23:47.441Z,208.12
2022-11-21T11:24:47.436Z,208.12
2022-11-21T11:25:47.903Z,196.88
2022-11-21T11:26:48.475Z,163.12
2022-11-21T11:27:47.435Z,135.00
2022-11-21T11:28:47.904Z,123.75
2022-11-21T11:29:47.445Z,135.00
2022-11-21T11:30:47.574Z,163.12
2022-11-21T11:31:47.766Z,168.75
2022-11-21T11:32:48.068Z,168.75
2022-11-21T11:33:47.866Z,174.38
2022-11-21T11:34:47.904Z,168.75
2022-11-21T11:35:47.464Z,174.38
2022-11-21T11:36:47.653Z,174.38
2022-11-21T11:37:47.904Z,174.38
2022-11-21T11:38:48.071Z,196.88
2022-11-21T11:39:48.093Z,236.25
2022-11-21T11:40:47.322Z,281.25
2022-11-21T11:41:47.311Z,286.88
2022-11-21T11:42:47.337Z,292.50
2022-11-21T11:43:47.319Z,298.12
2022-11-21T11:44:47.291Z,258.75
2022-11-21T11:45:47.356Z,213.75
2022-11-21T11:46:47.553Z,174.38
2022-11-21T11:47:51.992Z,180.00
2022-11-21T11:49:11.482Z,230.62
2022-11-21T11:49:48.783Z,298.12
2022-11-21T11:50:47.270Z,275.62
2022-11-21T11:51:47.317Z,258.75
2022-11-21T11:52:47.257Z,264.38
2022-11-21T11:53:48.216Z,348.75
2022-11-21T11:54:47.239Z,393.75
2022-11-21T11:55:47.248Z,309.38
2022-11-21T11:56:47.440Z,303.75
2022-11-21T11:57:47.289Z,286.88
2022-11-21T11:58:47.315Z,219.38
2022-11-21T11:59:47.348Z,225.00
2022-11-21T12:00:47.437Z,241.88
2022-11-21T12:01:48.609Z,247.50
2022-11-21T12:02:47.277Z,258.75
2022-11-21T12:03:47.489Z,264.38
2022-11-21T12:04:47.516Z,270.00
2022-11-21T12:05:47.147Z,286.88
2022-11-21T12:08:39.612Z,303.75
2022-11-21T12:08:47.774Z,286.88
2022-11-21T12:09:47.128Z,258.75
2022-11-21T12:10:47.503Z,247.50
2022-11-21T12:11:47.516Z,241.88
2022-11-21T12:12:47.725Z,213.75
2022-11-21T12:13:47.930Z,191.25
2022-11-21T12:14:47.424Z,196.88
2022-11-21T12:15:47.299Z,196.88
2022-11-21T12:16:47.139Z,208.12
2022-11-21T12:17:47.770Z,213.75
2022-11-21T12:18:47.787Z,225.00
2022-11-21T12:19:47.570Z,236.25
2022-11-21T12:20:47.772Z,219.38
2022-11-21T12:21:47.052Z,219.38
2022-11-21T12:22:47.216Z,225.00
2022-11-21T12:23:47.370Z,241.88
2022-11-21T12:24:48.108Z,247.50
2022-11-21T12:25:47.399Z,236.25
2022-11-21T12:26:47.227Z,236.25
2022-11-21T12:27:47.164Z,230.62
2022-11-21T12:28:47.160Z,241.88
2022-11-21T12:29:47.227Z,247.50
2022-11-21T12:30:47.099Z,258.75
2022-11-21T12:31:47.234Z,253.12
2022-11-21T12:32:47.136Z,247.50
2022-11-21T12:33:47.057Z,270.00
2022-11-21T12:34:47.200Z,281.25
2022-11-21T12:35:47.333Z,281.25
2022-11-21T12:36:47.168Z,281.25
2022-11-21T12:37:47.303Z,270.00
2022-11-21T12:38:47.288Z,275.62
2022-11-21T12:39:48.147Z,315.00
2022-11-21T12:40:47.303Z,348.75
2022-11-21T12:41:47.300Z,365.62
2022-11-21T12:42:47.352Z,382.50
2022-11-21T12:43:47.321Z,382.50
2022-11-21T12:44:47.080Z,365.62
2022-11-21T12:45:47.183Z,354.38
2022-11-21T12:46:47.072Z,343.12
2022-11-21T12:47:47.129Z,303.75
2022-11-21T12:48:47.343Z,281.25
2022-11-21T12:49:54.210Z,286.88
2022-11-21T12:50:47.367Z,320.62
2022-11-21T12:51:47.365Z,331.88
2022-11-21T12:52:47.378Z,331.88
2022-11-21T12:53:47.388Z,303.75
2022-11-21T12:54:46.976Z,275.62
2022-11-21T12:55:48.016Z,281.25
2022-11-21T12:56:47.406Z,264.38
2022-11-21T12:57:47.993Z,241.88
2022-11-21T12:58:47.089Z,236.25
2022-11-21T12:59:46.803Z,230.62
2022-11-21T13:00:47.014Z,236.25